sensor_id;sensor_type;location;lat;lon;timestamp;temperature;humidity
23311;DHT22;11828;51.508;18.118;2023-05-10T00:00:54;26.30;22.10
23311;DHT22;11828;51.508;18.118;2023-05-10T00:03:20;26.40;22.00
23311;DHT22;11828;51.508;18.118;2023-05-10T00:05:46;26.40;21.80
23311;DHT22;11828;51.508;18.118;2023-05-10T00:08:13;26.60;21.90
23311;DHT22;11828;51.508;18.118;2023-05-10T00:10:38;26.70;21.80
23311;DHT22;11828;51.508;18.118;2023-05-10T00:13:06;26.50;21.70
23311;DHT22;11828;51.508;18.118;2023-05-10T00:15:32;26.30;21.90
23311;DHT22;11828;51.508;18.118;2023-05-10T00:17:58;26.30;21.90
23311;DHT22;11828;51.508;18.118;2023-05-10T00:20:24;26.30;21.90
23311;DHT22;11828;51.508;18.118;2023-05-10T00:22:50;26.40;22.00
23311;DHT22;11828;51.508;18.118;2023-05-10T00:25:17;26.30;22.00
23311;DHT22;11828;51.508;18.118;2023-05-10T00:27:43;26.40;22.00
23311;DHT22;11828;51.508;18.118;2023-05-10T00:30:09;26.20;22.00
23311;DHT22;11828;51.508;18.118;2023-05-10T00:32:38;26.10;22.20
23311;DHT22;11828;51.508;18.118;2023-05-10T00:35:04;26.10;22.10
23311;DHT22;11828;51.508;18.118;2023-05-10T00:37:30;26.20;22.10
23311;DHT22;11828;51.508;18.118;2023-05-10T00:39:57;26.10;22.20
23311;DHT22;11828;51.508;18.118;2023-05-10T00:42:23;26.10;22.20
23311;DHT22;11828;51.508;18.118;2023-05-10T00:44:49;26.10;22.30
23311;DHT22;11828;51.508;18.118;2023-05-10T00:47:16;26.10;22.30
23311;DHT22;11828;51.508;18.118;2023-05-10T00:49:42;26.10;22.30
23311;DHT22;11828;51.508;18.118;2023-05-10T00:52:09;26.40;22.10
23311;DHT22;11828;51.508;18.118;2023-05-10T00:54:35;26.30;22.10
23311;DHT22;11828;51.508;18.118;2023-05-10T00:57:02;26.30;22.20
23311;DHT22;11828;51.508;18.118;2023-05-10T00:59:29;26.10;22.20
23311;DHT22;11828;51.508;18.118;2023-05-10T01:01:55;26.20;22.20
23311;DHT22;11828;51.508;18.118;2023-05-10T01:04:21;26.20;22.30
23311;DHT22;11828;51.508;18.118;2023-05-10T01:06:52;26.20;22.20
23311;DHT22;11828;51.508;18.118;2023-05-10T01:09:20;26.20;22.30
23311;DHT22;11828;51.508;18.118;2023-05-10T01:11:47;26.20;22.20
23311;DHT22;11828;51.508;18.118;2023-05-10T01:14:15;26.10;22.40
23311;DHT22;11828;51.508;18.118;2023-05-10T01:16:46;26.20;22.30
23311;DHT22;11828;51.508;18.118;2023-05-10T01:19:23;26.20;22.30
23311;DHT22;11828;51.508;18.118;2023-05-10T01:34:07;26.50;22.20
23311;DHT22;11828;51.508;18.118;2023-05-10T01:36:45;26.50;22.10
23311;DHT22;11828;51.508;18.118;2023-05-10T01:39:38;26.60;22.10
23311;DHT22;11828;51.508;18.118;2023-05-10T01:42:14;26.60;22.10
23311;DHT22;11828;51.508;18.118;2023-05-10T01:45:02;26.60;22.10
23311;DHT22;11828;51.508;18.118;2023-05-10T01:47:42;26.50;22.20
23311;DHT22;11828;51.508;18.118;2023-05-10T01:50:23;26.50;22.30
23311;DHT22;11828;51.508;18.118;2023-05-10T01:52:55;26.50;22.30
23311;DHT22;11828;51.508;18.118;2023-05-10T01:55:26;26.60;22.20
23311;DHT22;11828;51.508;18.118;2023-05-10T01:58:08;26.60;22.20
23311;DHT22;11828;51.508;18.118;2023-05-10T02:00:36;26.50;22.30
23311;DHT22;11828;51.508;18.118;2023-05-10T02:03:07;26.50;22.20
23311;DHT22;11828;51.508;18.118;2023-05-10T02:05:34;26.50;22.30
23311;DHT22;11828;51.508;18.118;2023-05-10T02:08:02;26.40;22.30
23311;DHT22;11828;51.508;18.118;2023-05-10T02:10:29;26.50;22.50
23311;DHT22;11828;51.508;18.118;2023-05-10T02:12:58;26.50;22.40
23311;DHT22;11828;51.508;18.118;2023-05-10T02:15:26;26.40;22.40
23311;DHT22;11828;51.508;18.118;2023-05-10T02:17:55;26.40;22.40
23311;DHT22;11828;51.508;18.118;2023-05-10T02:20:23;26.30;22.40
23311;DHT22;11828;51.508;18.118;2023-05-10T02:22:52;26.20;22.50
23311;DHT22;11828;51.508;18.118;2023-05-10T02:25:21;26.10;22.60
23311;DHT22;11828;51.508;18.118;2023-05-10T02:27:49;26.00;22.80
23311;DHT22;11828;51.508;18.118;2023-05-10T02:30:16;26.00;22.80
23311;DHT22;11828;51.508;18.118;2023-05-10T02:32:44;26.00;22.80
23311;DHT22;11828;51.508;18.118;2023-05-10T02:35:11;26.00;22.90
23311;DHT22;11828;51.508;18.118;2023-05-10T02:37:38;26.00;22.80
23311;DHT22;11828;51.508;18.118;2023-05-10T02:40:06;26.00;22.80
23311;DHT22;11828;51.508;18.118;2023-05-10T02:42:36;25.90;22.90
23311;DHT22;11828;51.508;18.118;2023-05-10T02:45:08;25.90;23.00
23311;DHT22;11828;51.508;18.118;2023-05-10T02:47:37;25.90;23.10
23311;DHT22;11828;51.508;18.118;2023-05-10T02:50:04;25.80;23.10
23311;DHT22;11828;51.508;18.118;2023-05-10T02:52:40;25.80;23.10
23311;DHT22;11828;51.508;18.118;2023-05-10T02:55:12;25.70;23.10
23311;DHT22;11828;51.508;18.118;2023-05-10T02:57:46;25.70;23.20
23311;DHT22;11828;51.508;18.118;2023-05-10T03:00:24;25.80;23.20
23311;DHT22;11828;51.508;18.118;2023-05-10T03:02:50;25.80;23.20
23311;DHT22;11828;51.508;18.118;2023-05-10T03:05:17;25.80;23.10
23311;DHT22;11828;51.508;18.118;2023-05-10T03:07:44;25.90;23.20
23311;DHT22;11828;51.508;18.118;2023-05-10T03:10:11;25.80;23.10
23311;DHT22;11828;51.508;18.118;2023-05-10T03:18:43;25.90;23.20
23311;DHT22;11828;51.508;18.118;2023-05-10T03:21:13;25.90;23.30
23311;DHT22;11828;51.508;18.118;2023-05-10T03:26:32;25.90;23.40
23311;DHT22;11828;51.508;18.118;2023-05-10T03:28:59;25.90;23.30
23311;DHT22;11828;51.508;18.118;2023-05-10T03:31:26;25.80;23.30
23311;DHT22;11828;51.508;18.118;2023-05-10T03:33:53;25.80;23.40
23311;DHT22;11828;51.508;18.118;2023-05-10T03:36:19;25.70;23.40
23311;DHT22;11828;51.508;18.118;2023-05-10T03:38:45;25.60;23.50
23311;DHT22;11828;51.508;18.118;2023-05-10T03:41:11;25.60;23.60
23311;DHT22;11828;51.508;18.118;2023-05-10T03:43:38;25.60;23.80
23311;DHT22;11828;51.508;18.118;2023-05-10T03:46:05;25.50;23.70
23311;DHT22;11828;51.508;18.118;2023-05-10T03:48:32;25.50;23.70
23311;DHT22;11828;51.508;18.118;2023-05-10T03:50:58;25.40;23.60
23311;DHT22;11828;51.508;18.118;2023-05-10T03:53:24;25.40;23.80
23311;DHT22;11828;51.508;18.118;2023-05-10T03:55:51;25.40;23.90
23311;DHT22;11828;51.508;18.118;2023-05-10T03:58:17;25.20;23.90
23311;DHT22;11828;51.508;18.118;2023-05-10T04:00:44;25.20;24.00
23311;DHT22;11828;51.508;18.118;2023-05-10T04:03:11;25.20;24.10
23311;DHT22;11828;51.508;18.118;2023-05-10T04:05:38;25.10;24.10
23311;DHT22;11828;51.508;18.118;2023-05-10T04:08:04;25.10;24.20
23311;DHT22;11828;51.508;18.118;2023-05-10T04:10:31;25.10;24.30
23311;DHT22;11828;51.508;18.118;2023-05-10T04:12:58;25.10;24.20
23311;DHT22;11828;51.508;18.118;2023-05-10T04:15:24;25.20;24.20
23311;DHT22;11828;51.508;18.118;2023-05-10T04:17:50;25.20;24.30
23311;DHT22;11828;51.508;18.118;2023-05-10T04:20:17;25.20;24.40
23311;DHT22;11828;51.508;18.118;2023-05-10T04:22:43;25.10;24.30
23311;DHT22;11828;51.508;18.118;2023-05-10T04:25:09;25.00;24.50
23311;DHT22;11828;51.508;18.118;2023-05-10T04:27:35;25.00;24.60
23311;DHT22;11828;51.508;18.118;2023-05-10T04:30:02;25.10;24.60
23311;DHT22;11828;51.508;18.118;2023-05-10T04:32:29;25.20;24.60
23311;DHT22;11828;51.508;18.118;2023-05-10T04:34:55;25.20;24.60
23311;DHT22;11828;51.508;18.118;2023-05-10T04:37:21;25.30;24.60
23311;DHT22;11828;51.508;18.118;2023-05-10T04:39:49;25.10;24.50
23311;DHT22;11828;51.508;18.118;2023-05-10T04:42:14;25.10;24.80
23311;DHT22;11828;51.508;18.118;2023-05-10T04:44:41;25.10;24.90
23311;DHT22;11828;51.508;18.118;2023-05-10T04:47:07;25.00;25.00
23311;DHT22;11828;51.508;18.118;2023-05-10T04:49:33;25.20;25.10
23311;DHT22;11828;51.508;18.118;2023-05-10T04:51:59;25.10;25.10
23311;DHT22;11828;51.508;18.118;2023-05-10T04:54:25;25.20;25.10
23311;DHT22;11828;51.508;18.118;2023-05-10T04:56:52;25.10;25.00
23311;DHT22;11828;51.508;18.118;2023-05-10T04:59:18;25.10;25.10
23311;DHT22;11828;51.508;18.118;2023-05-10T05:01:44;25.20;25.10
23311;DHT22;11828;51.508;18.118;2023-05-10T05:04:10;25.10;25.10
23311;DHT22;11828;51.508;18.118;2023-05-10T05:06:37;25.10;25.80
23311;DHT22;11828;51.508;18.118;2023-05-10T05:09:03;25.00;25.10
23311;DHT22;11828;51.508;18.118;2023-05-10T05:11:29;25.10;25.20
23311;DHT22;11828;51.508;18.118;2023-05-10T05:13:55;25.10;25.20
23311;DHT22;11828;51.508;18.118;2023-05-10T05:16:21;25.20;25.20
23311;DHT22;11828;51.508;18.118;2023-05-10T05:18:48;25.00;25.30
23311;DHT22;11828;51.508;18.118;2023-05-10T05:21:18;25.10;25.30
23311;DHT22;11828;51.508;18.118;2023-05-10T05:23:45;25.10;25.40
23311;DHT22;11828;51.508;18.118;2023-05-10T05:26:12;25.30;25.50
23311;DHT22;11828;51.508;18.118;2023-05-10T05:28:38;25.60;25.30
23311;DHT22;11828;51.508;18.118;2023-05-10T05:31:05;25.70;25.10
23311;DHT22;11828;51.508;18.118;2023-05-10T05:33:31;25.80;24.80
23311;DHT22;11828;51.508;18.118;2023-05-10T05:36:00;26.00;24.80
23311;DHT22;11828;51.508;18.118;2023-05-10T05:38:28;26.00;24.90
23311;DHT22;11828;51.508;18.118;2023-05-10T05:40:54;26.30;24.90
23311;DHT22;11828;51.508;18.118;2023-05-10T05:43:20;26.50;24.70
23311;DHT22;11828;51.508;18.118;2023-05-10T05:45:46;26.50;24.50
23311;DHT22;11828;51.508;18.118;2023-05-10T05:48:12;26.60;24.50
23311;DHT22;11828;51.508;18.118;2023-05-10T05:50:38;26.70;25.10
23311;DHT22;11828;51.508;18.118;2023-05-10T05:53:04;26.60;24.60
23311;DHT22;11828;51.508;18.118;2023-05-10T05:55:30;26.60;24.50
23311;DHT22;11828;51.508;18.118;2023-05-10T05:57:58;26.90;24.40
23311;DHT22;11828;51.508;18.118;2023-05-10T06:00:24;27.00;24.30
23311;DHT22;11828;51.508;18.118;2023-05-10T06:02:50;27.20;24.60
23311;DHT22;11828;51.508;18.118;2023-05-10T06:05:16;27.30;24.10
23311;DHT22;11828;51.508;18.118;2023-05-10T06:07:43;27.50;23.90
23311;DHT22;11828;51.508;18.118;2023-05-10T06:10:09;27.60;23.70
23311;DHT22;11828;51.508;18.118;2023-05-10T06:12:36;27.70;23.80
23311;DHT22;11828;51.508;18.118;2023-05-10T06:15:03;27.50;23.60
23311;DHT22;11828;51.508;18.118;2023-05-10T06:17:29;27.60;23.70
23311;DHT22;11828;51.508;18.118;2023-05-10T06:19:56;27.80;23.80
23311;DHT22;11828;51.508;18.118;2023-05-10T06:22:22;27.90;23.80
23311;DHT22;11828;51.508;18.118;2023-05-10T06:24:49;27.90;23.60
23311;DHT22;11828;51.508;18.118;2023-05-10T06:27:15;28.00;23.60
23311;DHT22;11828;51.508;18.118;2023-05-10T06:29:41;28.20;23.60
23311;DHT22;11828;51.508;18.118;2023-05-10T06:32:08;28.50;23.50
23311;DHT22;11828;51.508;18.118;2023-05-10T06:34:34;28.40;23.10
23311;DHT22;11828;51.508;18.118;2023-05-10T06:37:00;28.50;22.90
23311;DHT22;11828;51.508;18.118;2023-05-10T06:39:26;28.60;22.90
23311;DHT22;11828;51.508;18.118;2023-05-10T06:41:52;28.70;23.00
23311;DHT22;11828;51.508;18.118;2023-05-10T06:44:18;29.00;22.80
23311;DHT22;11828;51.508;18.118;2023-05-10T06:46:45;29.70;23.00
23311;DHT22;11828;51.508;18.118;2023-05-10T06:49:11;30.50;22.20
23311;DHT22;11828;51.508;18.118;2023-05-10T06:51:37;31.20;21.40
23311;DHT22;11828;51.508;18.118;2023-05-10T06:54:03;31.90;21.00
23311;DHT22;11828;51.508;18.118;2023-05-10T06:56:29;32.50;20.50
23311;DHT22;11828;51.508;18.118;2023-05-10T06:58:55;33.10;19.80
23311;DHT22;11828;51.508;18.118;2023-05-10T07:01:22;33.60;19.30
23311;DHT22;11828;51.508;18.118;2023-05-10T07:03:48;33.90;19.00
23311;DHT22;11828;51.508;18.118;2023-05-10T07:06:14;34.10;18.60
23311;DHT22;11828;51.508;18.118;2023-05-10T07:08:40;34.50;18.80
23311;DHT22;11828;51.508;18.118;2023-05-10T07:11:07;34.80;18.70
23311;DHT22;11828;51.508;18.118;2023-05-10T07:13:34;35.40;18.30
23311;DHT22;11828;51.508;18.118;2023-05-10T07:16:00;35.80;18.10
23311;DHT22;11828;51.508;18.118;2023-05-10T07:18:27;36.10;17.90
23311;DHT22;11828;51.508;18.118;2023-05-10T07:20:54;36.10;17.40
23311;DHT22;11828;51.508;18.118;2023-05-10T07:23:20;36.40;17.50
23311;DHT22;11828;51.508;18.118;2023-05-10T07:25:50;36.60;17.10
23311;DHT22;11828;51.508;18.118;2023-05-10T07:28:17;36.50;16.90
23311;DHT22;11828;51.508;18.118;2023-05-10T07:30:44;36.90;17.10
23311;DHT22;11828;51.508;18.118;2023-05-10T07:33:11;37.10;16.50
23311;DHT22;11828;51.508;18.118;2023-05-10T07:35:38;37.40;16.70
23311;DHT22;11828;51.508;18.118;2023-05-10T07:38:05;37.20;16.20
23311;DHT22;11828;51.508;18.118;2023-05-10T07:40:31;37.40;16.30
23311;DHT22;11828;51.508;18.118;2023-05-10T07:42:57;37.60;16.00
23311;DHT22;11828;51.508;18.118;2023-05-10T07:45:24;37.90;16.40
23311;DHT22;11828;51.508;18.118;2023-05-10T07:47:50;38.20;16.20
23311;DHT22;11828;51.508;18.118;2023-05-10T07:50:16;38.60;16.00
23311;DHT22;11828;51.508;18.118;2023-05-10T07:52:42;38.80;15.70
23311;DHT22;11828;51.508;18.118;2023-05-10T07:55:09;39.00;15.50
23311;DHT22;11828;51.508;18.118;2023-05-10T07:57:35;39.10;15.20
23311;DHT22;11828;51.508;18.118;2023-05-10T08:00:02;38.90;15.10
23311;DHT22;11828;51.508;18.118;2023-05-10T08:02:29;39.00;15.20
23311;DHT22;11828;51.508;18.118;2023-05-10T08:04:55;38.90;15.30
23311;DHT22;11828;51.508;18.118;2023-05-10T08:07:21;38.80;15.30
23311;DHT22;11828;51.508;18.118;2023-05-10T08:09:47;39.00;15.20
23311;DHT22;11828;51.508;18.118;2023-05-10T08:12:13;39.20;15.00
23311;DHT22;11828;51.508;18.118;2023-05-10T08:14:40;39.20;15.10
23311;DHT22;11828;51.508;18.118;2023-05-10T08:17:06;39.50;15.30
23311;DHT22;11828;51.508;18.118;2023-05-10T08:19:32;39.90;15.60
23311;DHT22;11828;51.508;18.118;2023-05-10T08:21:58;40.60;15.20
23311;DHT22;11828;51.508;18.118;2023-05-10T08:24:24;40.90;14.50
23311;DHT22;11828;51.508;18.118;2023-05-10T08:26:50;41.30;14.70
23311;DHT22;11828;51.508;18.118;2023-05-10T08:29:17;41.50;14.30
23311;DHT22;11828;51.508;18.118;2023-05-10T08:31:43;41.40;13.90
23311;DHT22;11828;51.508;18.118;2023-05-10T08:34:09;41.60;14.30
23311;DHT22;11828;51.508;18.118;2023-05-10T08:36:35;41.80;14.20
23311;DHT22;11828;51.508;18.118;2023-05-10T08:39:02;42.30;14.10
23311;DHT22;11828;51.508;18.118;2023-05-10T08:41:28;42.50;14.10
23311;DHT22;11828;51.508;18.118;2023-05-10T08:43:56;42.90;14.30
23311;DHT22;11828;51.508;18.118;2023-05-10T08:46:23;43.40;14.00
23311;DHT22;11828;51.508;18.118;2023-05-10T08:48:50;44.00;13.60
23311;DHT22;11828;51.508;18.118;2023-05-10T08:51:22;44.20;13.70
23311;DHT22;11828;51.508;18.118;2023-05-10T08:53:52;44.30;13.00
23311;DHT22;11828;51.508;18.118;2023-05-10T08:56:19;44.40;13.00
23311;DHT22;11828;51.508;18.118;2023-05-10T08:58:47;44.50;13.10
23311;DHT22;11828;51.508;18.118;2023-05-10T09:01:13;44.70;12.60
23311;DHT22;11828;51.508;18.118;2023-05-10T09:03:41;44.80;13.50
23311;DHT22;11828;51.508;18.118;2023-05-10T09:06:07;44.70;12.60
23311;DHT22;11828;51.508;18.118;2023-05-10T09:08:34;44.50;12.60
23311;DHT22;11828;51.508;18.118;2023-05-10T09:11:02;44.40;12.90
23311;DHT22;11828;51.508;18.118;2023-05-10T09:13:29;44.30;12.70
23311;DHT22;11828;51.508;18.118;2023-05-10T09:15:56;44.20;12.90
23311;DHT22;11828;51.508;18.118;2023-05-10T09:18:22;44.60;13.00
23311;DHT22;11828;51.508;18.118;2023-05-10T09:20:48;44.40;12.60
23311;DHT22;11828;51.508;18.118;2023-05-10T09:23:15;44.20;12.60
23311;DHT22;11828;51.508;18.118;2023-05-10T09:25:42;44.20;12.60
23311;DHT22;11828;51.508;18.118;2023-05-10T09:28:08;44.20;12.80
23311;DHT22;11828;51.508;18.118;2023-05-10T09:30:35;44.50;12.60
23311;DHT22;11828;51.508;18.118;2023-05-10T09:33:01;44.70;12.50
23311;DHT22;11828;51.508;18.118;2023-05-10T09:35:30;44.80;12.40
23311;DHT22;11828;51.508;18.118;2023-05-10T09:38:00;44.90;12.60
23311;DHT22;11828;51.508;18.118;2023-05-10T09:40:29;44.90;12.60
23311;DHT22;11828;51.508;18.118;2023-05-10T09:43:01;45.10;12.50
23311;DHT22;11828;51.508;18.118;2023-05-10T09:45:29;45.10;12.30
23311;DHT22;11828;51.508;18.118;2023-05-10T09:47:57;45.20;12.10
23311;DHT22;11828;51.508;18.118;2023-05-10T09:50:24;44.50;12.30
23311;DHT22;11828;51.508;18.118;2023-05-10T09:52:52;44.30;12.60
23311;DHT22;11828;51.508;18.118;2023-05-10T09:55:21;43.70;12.00
23311;DHT22;11828;51.508;18.118;2023-05-10T09:57:58;43.00;12.10
23311;DHT22;11828;51.508;18.118;2023-05-10T10:00:25;43.10;12.30
23311;DHT22;11828;51.508;18.118;2023-05-10T10:02:57;42.90;12.50
23311;DHT22;11828;51.508;18.118;2023-05-10T10:05:34;42.80;12.30
23311;DHT22;11828;51.508;18.118;2023-05-10T10:08:05;42.60;12.30
23311;DHT22;11828;51.508;18.118;2023-05-10T10:10:32;42.80;12.70
23311;DHT22;11828;51.508;18.118;2023-05-10T10:12:59;42.40;12.50
23311;DHT22;11828;51.508;18.118;2023-05-10T10:15:26;42.10;12.80
23311;DHT22;11828;51.508;18.118;2023-05-10T10:17:53;41.70;12.70
23311;DHT22;11828;51.508;18.118;2023-05-10T10:20:20;41.40;12.80
23311;DHT22;11828;51.508;18.118;2023-05-10T10:22:48;41.20;13.50
23311;DHT22;11828;51.508;18.118;2023-05-10T10:25:17;41.20;13.50
23311;DHT22;11828;51.508;18.118;2023-05-10T10:30:45;41.50;14.10
23311;DHT22;11828;51.508;18.118;2023-05-10T10:35:45;40.90;14.00
23311;DHT22;11828;51.508;18.118;2023-05-10T10:38:13;40.70;14.20
23311;DHT22;11828;51.508;18.118;2023-05-10T10:40:39;40.30;14.20
23311;DHT22;11828;51.508;18.118;2023-05-10T10:43:23;39.80;14.60
23311;DHT22;11828;51.508;18.118;2023-05-10T10:46:13;39.40;14.80
23311;DHT22;11828;51.508;18.118;2023-05-10T10:48:49;39.20;15.40
23311;DHT22;11828;51.508;18.118;2023-05-10T10:51:17;39.20;15.30
23311;DHT22;11828;51.508;18.118;2023-05-10T10:53:43;39.20;15.30
23311;DHT22;11828;51.508;18.118;2023-05-10T10:56:13;39.30;15.10
23311;DHT22;11828;51.508;18.118;2023-05-10T10:58:49;39.70;15.00
23311;DHT22;11828;51.508;18.118;2023-05-10T11:01:19;40.20;14.80
23311;DHT22;11828;51.508;18.118;2023-05-10T11:06:34;40.40;14.50
23311;DHT22;11828;51.508;18.118;2023-05-10T11:09:08;40.50;14.70
23311;DHT22;11828;51.508;18.118;2023-05-10T11:11:48;40.50;14.60
23311;DHT22;11828;51.508;18.118;2023-05-10T11:14:21;40.40;14.80
23311;DHT22;11828;51.508;18.118;2023-05-10T11:16:48;40.40;14.60
23311;DHT22;11828;51.508;18.118;2023-05-10T11:19:16;40.40;14.80
23311;DHT22;11828;51.508;18.118;2023-05-10T11:24:31;39.80;14.80
23311;DHT22;11828;51.508;18.118;2023-05-10T11:26:59;39.20;15.20
23311;DHT22;11828;51.508;18.118;2023-05-10T11:29:26;38.50;15.50
23311;DHT22;11828;51.508;18.118;2023-05-10T11:31:52;38.10;16.00
23311;DHT22;11828;51.508;18.118;2023-05-10T11:34:30;37.90;16.60
23311;DHT22;11828;51.508;18.118;2023-05-10T11:36:59;38.00;16.50
23311;DHT22;11828;51.508;18.118;2023-05-10T11:39:28;38.30;16.10
23311;DHT22;11828;51.508;18.118;2023-05-10T11:41:56;38.80;16.10
23311;DHT22;11828;51.508;18.118;2023-05-10T11:44:23;38.70;15.40
23311;DHT22;11828;51.508;18.118;2023-05-10T11:46:49;38.70;15.60
23311;DHT22;11828;51.508;18.118;2023-05-10T11:49:15;38.80;15.70
23311;DHT22;11828;51.508;18.118;2023-05-10T11:51:41;38.80;16.00
23311;DHT22;11828;51.508;18.118;2023-05-10T11:54:10;38.80;15.90
23311;DHT22;11828;51.508;18.118;2023-05-10T11:56:38;39.20;15.60
23311;DHT22;11828;51.508;18.118;2023-05-10T11:59:05;39.60;15.50
23311;DHT22;11828;51.508;18.118;2023-05-10T12:01:31;39.80;15.30
23311;DHT22;11828;51.508;18.118;2023-05-10T12:03:58;39.60;15.20
23311;DHT22;11828;51.508;18.118;2023-05-10T12:06:32;39.60;15.20
23311;DHT22;11828;51.508;18.118;2023-05-10T12:09:07;39.80;15.10
23311;DHT22;11828;51.508;18.118;2023-05-10T12:11:38;39.90;15.00
23311;DHT22;11828;51.508;18.118;2023-05-10T12:14:06;40.10;14.80
23311;DHT22;11828;51.508;18.118;2023-05-10T12:16:33;40.40;14.90
23311;DHT22;11828;51.508;18.118;2023-05-10T12:19:00;40.50;15.00
23311;DHT22;11828;51.508;18.118;2023-05-10T12:21:28;40.50;14.60
23311;DHT22;11828;51.508;18.118;2023-05-10T12:24:01;40.60;14.60
23311;DHT22;11828;51.508;18.118;2023-05-10T12:26:29;40.60;14.50
23311;DHT22;11828;51.508;18.118;2023-05-10T12:29:12;40.30;14.70
23311;DHT22;11828;51.508;18.118;2023-05-10T12:31:52;39.80;14.80
23311;DHT22;11828;51.508;18.118;2023-05-10T12:34:30;39.80;14.80
23311;DHT22;11828;51.508;18.118;2023-05-10T12:36:57;39.80;14.90
23311;DHT22;11828;51.508;18.118;2023-05-10T12:39:24;40.10;15.00
23311;DHT22;11828;51.508;18.118;2023-05-10T12:41:51;40.10;14.80
23311;DHT22;11828;51.508;18.118;2023-05-10T12:44:18;40.30;14.60
23311;DHT22;11828;51.508;18.118;2023-05-10T12:46:44;40.40;14.70
23311;DHT22;11828;51.508;18.118;2023-05-10T12:49:11;40.60;14.70
23311;DHT22;11828;51.508;18.118;2023-05-10T12:51:37;40.80;14.90
23311;DHT22;11828;51.508;18.118;2023-05-10T12:54:04;41.10;14.60
23311;DHT22;11828;51.508;18.118;2023-05-10T12:56:31;41.40;14.20
23311;DHT22;11828;51.508;18.118;2023-05-10T12:58:57;41.60;14.30
23311;DHT22;11828;51.508;18.118;2023-05-10T13:01:23;41.60;14.30
23311;DHT22;11828;51.508;18.118;2023-05-10T13:03:49;41.60;14.00
23311;DHT22;11828;51.508;18.118;2023-05-10T13:06:16;41.40;13.90
23311;DHT22;11828;51.508;18.118;2023-05-10T13:08:42;40.90;14.10
23311;DHT22;11828;51.508;18.118;2023-05-10T13:11:08;40.50;14.30
23311;DHT22;11828;51.508;18.118;2023-05-10T13:13:34;40.60;14.40
23311;DHT22;11828;51.508;18.118;2023-05-10T13:16:01;40.60;14.50
23311;DHT22;11828;51.508;18.118;2023-05-10T13:18:27;40.80;14.40
23311;DHT22;11828;51.508;18.118;2023-05-10T13:20:53;41.10;14.30
23311;DHT22;11828;51.508;18.118;2023-05-10T13:23:21;41.20;14.10
23311;DHT22;11828;51.508;18.118;2023-05-10T13:25:47;41.40;14.20
23311;DHT22;11828;51.508;18.118;2023-05-10T13:28:13;41.50;14.10
23311;DHT22;11828;51.508;18.118;2023-05-10T13:30:39;41.10;14.10
23311;DHT22;11828;51.508;18.118;2023-05-10T13:33:05;41.00;14.60
23311;DHT22;11828;51.508;18.118;2023-05-10T13:35:31;41.00;14.30
23311;DHT22;11828;51.508;18.118;2023-05-10T13:37:57;40.70;14.30
23311;DHT22;11828;51.508;18.118;2023-05-10T13:40:23;40.90;14.40
23311;DHT22;11828;51.508;18.118;2023-05-10T13:42:50;41.20;14.50
23311;DHT22;11828;51.508;18.118;2023-05-10T13:45:16;41.40;14.20
23311;DHT22;11828;51.508;18.118;2023-05-10T13:47:42;41.20;14.10
23311;DHT22;11828;51.508;18.118;2023-05-10T13:50:08;40.80;14.20
23311;DHT22;11828;51.508;18.118;2023-05-10T13:52:34;40.10;15.10
23311;DHT22;11828;51.508;18.118;2023-05-10T13:55:01;39.50;14.70
23311;DHT22;11828;51.508;18.118;2023-05-10T13:57:27;39.50;14.70
23311;DHT22;11828;51.508;18.118;2023-05-10T13:59:54;39.40;14.90
23311;DHT22;11828;51.508;18.118;2023-05-10T14:02:21;39.60;14.90
23311;DHT22;11828;51.508;18.118;2023-05-10T14:04:47;39.90;14.80
23311;DHT22;11828;51.508;18.118;2023-05-10T14:07:14;40.20;15.30
23311;DHT22;11828;51.508;18.118;2023-05-10T14:09:40;40.30;14.60
23311;DHT22;11828;51.508;18.118;2023-05-10T14:12:06;40.60;14.60
23311;DHT22;11828;51.508;18.118;2023-05-10T14:14:32;40.80;14.40
23311;DHT22;11828;51.508;18.118;2023-05-10T14:16:58;40.90;14.20
23311;DHT22;11828;51.508;18.118;2023-05-10T14:19:24;41.40;14.20
23311;DHT22;11828;51.508;18.118;2023-05-10T14:21:52;41.80;14.30
23311;DHT22;11828;51.508;18.118;2023-05-10T14:24:18;41.90;13.80
23311;DHT22;11828;51.508;18.118;2023-05-10T14:26:44;41.60;13.90
23311;DHT22;11828;51.508;18.118;2023-05-10T14:29:10;41.60;14.00
23311;DHT22;11828;51.508;18.118;2023-05-10T14:31:37;41.70;14.10
23311;DHT22;11828;51.508;18.118;2023-05-10T14:34:03;41.40;14.00
23311;DHT22;11828;51.508;18.118;2023-05-10T14:36:29;40.90;14.10
23311;DHT22;11828;51.508;18.118;2023-05-10T14:38:55;40.30;14.10
23311;DHT22;11828;51.508;18.118;2023-05-10T14:41:22;40.00;14.60
23311;DHT22;11828;51.508;18.118;2023-05-10T14:43:48;39.80;14.40
23311;DHT22;11828;51.508;18.118;2023-05-10T14:46:14;39.60;14.50
23311;DHT22;11828;51.508;18.118;2023-05-10T14:48:41;39.60;14.70
23311;DHT22;11828;51.508;18.118;2023-05-10T14:51:07;39.70;14.70
23311;DHT22;11828;51.508;18.118;2023-05-10T14:53:33;40.10;14.60
23311;DHT22;11828;51.508;18.118;2023-05-10T14:56:00;40.30;14.40
23311;DHT22;11828;51.508;18.118;2023-05-10T14:58:27;40.50;14.60
23311;DHT22;11828;51.508;18.118;2023-05-10T15:00:53;40.40;14.30
23311;DHT22;11828;51.508;18.118;2023-05-10T15:03:19;40.50;14.40
23311;DHT22;11828;51.508;18.118;2023-05-10T15:05:46;40.60;14.50
23311;DHT22;11828;51.508;18.118;2023-05-10T15:08:12;41.00;14.60
23311;DHT22;11828;51.508;18.118;2023-05-10T15:10:39;40.90;14.30
23311;DHT22;11828;51.508;18.118;2023-05-10T15:13:05;41.00;14.40
23311;DHT22;11828;51.508;18.118;2023-05-10T15:15:31;40.60;25.40
23311;DHT22;11828;51.508;18.118;2023-05-10T15:17:57;41.60;20.80
23311;DHT22;11828;51.508;18.118;2023-05-10T15:22:50;39.70;15.20
23311;DHT22;11828;51.508;18.118;2023-05-10T15:25:16;39.50;22.90
23311;DHT22;11828;51.508;18.118;2023-05-10T15:30:10;39.30;14.30
23311;DHT22;11828;51.508;18.118;2023-05-10T15:32:36;39.10;14.90
23311;DHT22;11828;51.508;18.118;2023-05-10T15:35:03;38.80;14.90
23311;DHT22;11828;51.508;18.118;2023-05-10T15:37:29;38.70;14.90
23311;DHT22;11828;51.508;18.118;2023-05-10T15:39:55;38.70;15.20
23311;DHT22;11828;51.508;18.118;2023-05-10T15:42:28;37.80;17.40
23311;DHT22;11828;51.508;18.118;2023-05-10T15:44:56;38.10;15.30
23311;DHT22;11828;51.508;18.118;2023-05-10T15:47:23;37.10;17.60
23311;DHT22;11828;51.508;18.118;2023-05-10T15:49:49;36.50;16.50
23311;DHT22;11828;51.508;18.118;2023-05-10T15:52:15;36.20;19.60
23311;DHT22;11828;51.508;18.118;2023-05-10T15:59:34;35.40;16.60